Accueil
METAR-TAF:

METAR-TAF

Aéroports :

Tel Aviv / Ben Gurion, Israël

Aéroport international de Tel Aviv-David Ben Gourion

latitude: 32-00N, longitude: 034-54E, altitude: 40 m

Observation

Le bulletin a été fait il y a 12 minutes, à 05:05 UTC
Vent 6 kt de sud/sud-est
Température 24°C
Humidité 83%
Pression 1009 hPa
Visibilité: 7000 m
Nuages épars à une hauteur de 900 ft

METAR: LLBG 260505Z 15006KT 7000 SCT009 24/21 Q1009 BECMG 9000 SCT015

Heure: 08:17 (05:17 UTC)


TAF: absent

Observations et prévisions météorologiques de plus de 4000 aéroports (messages METAR et TAF).

Les stations disponibles sont représentées par des disques jaunes et rouges sur la carte.

Passer la souris dessus pour voir le nom de la station.

Cliquer dessus pour voir les observations et prévisions météorologiques.

Pour changer de carte: cliquez sur les boutons verts avec une croix noire pour zoomer, sur le bouton vert avec un tiret pour effectuer un zoom arrière, ou sur les flèches vertes pour les cartes adjacentes.


METAR-TAF: